Agana Heights, Guam
Current Conditions -  °F | °C
As of 6:54 AM on Tuesday 21 Oct 2014 (Local Time) from PGUM Reporting Station
Clear Clear  
Wind Chill: 80°   Ceiling: Unl
Heat Index: 85°   Visibility: 10mi
Dew Point: 76°   Wind: 5mph
Humidity: 87%   Direction: 50°NE
Pressure: 29.86"   Gusts: NA
Location:  13.47°N, 144.74°E
Report Text: PGUM 202054Z 05004KT 10SM CLR 27/24 A2986 RMK AO2 RAE05 SLP103 P0000 60003 T02670244 53013
Loading
Personal Weather Stations






























Interactive Weather Map
Tropical Storm Tracking
New forecast layout! Learn more

10-Day Weather Forecast

Advertisements
Track Severe Weather on mobile